Terminal Aerodrome Forecast
Issued by NWS

Home | Current Version | Previous Version | Graphics & Text | Print | Product List | Glossary On
Versions: 1 2 3 4 5 6 7 8 9 10 11 12 13 14 15 16 17 18 19
981
FTUS43 KGRB 282330
TAFAUW
TAF
KAUW 282330Z 2900/2924 20010G16KT P6SM SCT040 BKN070
     FM290100 19006KT P6SM SCT040 BKN060
      TEMPO 2901/2904 2SM TSRA BKN020CB OVC035
     FM290400 20006KT P6SM VCSH BKN035
     FM291100 22005KT 4SM -SHRA OVC008
     FM291600 26011KT P6SM -SHRA BKN015
     FM291900 26012KT P6SM VCSH BKN020
     FM292200 27011KT P6SM VCSH BKN035=

USA.gov is the U.S. government's official web portal to all federal, state and local government web resources and services.